createdAt,value
2022-10-15T00:01:42.503Z,100288.09
2022-10-15T00:04:10.972Z,100289.84
2022-10-15T00:06:39.577Z,100297.78
2022-10-15T00:09:07.857Z,100291.66
2022-10-15T00:11:37.430Z,100288.09
2022-10-15T00:14:05.740Z,100282.81
2022-10-15T00:16:34.835Z,100278.44
2022-10-15T00:19:02.872Z,100276.69
2022-10-15T00:21:31.029Z,100274.00
2022-10-15T00:23:59.685Z,100270.47
2022-10-15T00:26:29.751Z,100264.25
2022-10-15T00:29:02.292Z,100260.78
2022-10-15T00:31:32.121Z,100258.97
2022-10-15T00:34:02.757Z,100254.53
2022-10-15T00:36:33.631Z,100254.75
2022-10-15T00:39:02.752Z,100248.56
2022-10-15T00:41:33.545Z,100251.13
2022-10-15T00:44:24.284Z,100237.03
2022-10-15T00:46:54.915Z,100232.56
2022-10-15T00:49:27.155Z,100224.59
2022-10-15T00:51:59.288Z,100228.94
2022-10-15T00:54:30.194Z,100223.59
2022-10-15T00:56:59.001Z,100215.69
2022-10-15T00:59:31.519Z,100213.97
2022-10-15T01:02:01.890Z,100204.22
2022-10-15T01:04:32.407Z,100202.47
2022-10-15T01:07:00.760Z,100204.28
2022-10-15T01:09:29.320Z,100199.78
2022-10-15T01:11:58.616Z,100191.84
2022-10-15T01:14:37.915Z,100193.47
2022-10-15T01:17:11.985Z,100193.41
2022-10-15T01:20:10.839Z,100192.59
2022-10-15T01:22:52.512Z,100176.81
2022-10-15T01:25:34.707Z,100178.56
2022-10-15T01:28:13.910Z,100178.63
2022-10-15T01:30:48.462Z,100172.38
2022-10-15T01:33:27.009Z,100173.34
2022-10-15T01:36:03.978Z,100167.13
2022-10-15T01:38:48.874Z,100169.72
2022-10-15T01:41:25.605Z,100162.72
2022-10-15T01:44:00.781Z,100162.72
2022-10-15T01:46:37.272Z,100149.34
2022-10-15T01:49:06.913Z,100155.38
2022-10-15T01:51:37.972Z,100147.56
2022-10-15T01:54:09.151Z,100143.94
2022-10-15T01:56:40.021Z,100133.41
2022-10-15T01:59:10.720Z,100135.09
2022-10-15T02:04:21.498Z,100134.06
2022-10-15T02:06:55.561Z,100120.91
2022-10-15T02:09:35.253Z,100120.06
2022-10-15T02:12:12.900Z,100121.72
2022-10-15T02:14:46.359Z,100112.91
2022-10-15T02:17:19.607Z,100098.75
2022-10-15T02:19:53.207Z,100107.63
2022-10-15T02:22:26.593Z,100092.78
2022-10-15T02:24:59.769Z,100091.84
2022-10-15T02:27:30.364Z,100086.50
2022-10-15T02:30:00.648Z,100077.81
2022-10-15T02:32:33.573Z,100076.94
2022-10-15T02:35:03.382Z,100076.00
2022-10-15T02:37:32.504Z,100074.16
2022-10-15T02:40:00.704Z,100074.97
2022-10-15T02:42:29.543Z,100068.88
2022-10-15T02:44:57.714Z,100061.97
2022-10-15T02:50:00.707Z,100053.22
2022-10-15T02:52:28.794Z,100057.50
2022-10-15T02:54:56.943Z,100058.38
2022-10-15T02:57:25.713Z,100047.81
2022-10-15T02:59:53.911Z,100042.53
2022-10-15T03:02:22.110Z,100047.66
2022-10-15T03:04:50.568Z,100037.97
2022-10-15T03:07:20.734Z,100031.88
2022-10-15T03:09:49.023Z,100021.19
2022-10-15T03:12:17.545Z,100022.13
2022-10-15T03:14:45.741Z,100014.13
2022-10-15T03:17:13.830Z,100017.53
2022-10-15T03:19:42.388Z,100008.69
2022-10-15T03:22:10.360Z,100006.88
2022-10-15T03:24:40.032Z,100003.41
2022-10-15T03:27:08.520Z,100004.03
2022-10-15T03:29:36.529Z,100001.41
2022-10-15T03:32:04.746Z,99996.97
2022-10-15T03:34:33.233Z,99982.88
2022-10-15T03:37:01.290Z,99986.25
2022-10-15T03:39:29.566Z,99983.56
2022-10-15T03:41:59.500Z,99987.13
2022-10-15T03:44:27.758Z,99993.25
2022-10-15T03:46:55.842Z,99987.97
2022-10-15T03:49:24.178Z,99985.53
2022-10-15T03:51:52.206Z,99987.44
2022-10-15T03:54:20.293Z,99978.63
2022-10-15T03:56:48.566Z,99985.66
2022-10-15T03:59:18.082Z,99973.34
2022-10-15T04:01:46.360Z,99965.47
2022-10-15T04:04:14.678Z,99969.88
2022-10-15T04:06:42.953Z,99985.88
2022-10-15T04:09:12.473Z,99971.19
2022-10-15T04:11:43.872Z,99978.97
2022-10-15T04:14:11.939Z,99957.91
2022-10-15T04:16:41.657Z,99922.84
2022-10-15T04:19:11.231Z,99940.16
2022-10-15T04:21:39.627Z,99943.81
2022-10-15T04:24:07.989Z,99922.63
2022-10-15T04:26:36.234Z,99927.88
2022-10-15T04:29:04.550Z,99934.94
2022-10-15T04:31:33.572Z,99935.06
2022-10-15T04:34:03.484Z,99917.63
2022-10-15T04:36:31.659Z,99919.28
2022-10-15T04:39:00.021Z,99917.31
2022-10-15T04:41:28.674Z,99917.38
2022-10-15T04:43:56.839Z,99912.09
2022-10-15T04:46:25.313Z,99899.78
2022-10-15T04:48:57.960Z,99897.88
2022-10-15T04:51:28.319Z,99901.63
2022-10-15T04:53:56.495Z,99896.25
2022-10-15T04:56:24.717Z,99894.41
2022-10-15T04:58:52.815Z,99896.25
2022-10-15T05:01:22.416Z,99890.97
2022-10-15T05:03:51.229Z,99892.59
2022-10-15T05:06:21.519Z,99892.59
2022-10-15T05:08:51.516Z,99900.38
2022-10-15T05:11:21.802Z,99894.13
2022-10-15T05:13:50.222Z,99897.59
2022-10-15T05:16:20.377Z,99894.06
2022-10-15T05:18:50.969Z,99890.50
2022-10-15T05:21:20.033Z,99879.81
2022-10-15T05:23:50.241Z,99871.09
2022-10-15T05:26:21.304Z,99876.28
2022-10-15T05:28:49.629Z,99872.63
2022-10-15T05:31:21.247Z,99870.91
2022-10-15T05:33:50.213Z,99864.66
2022-10-15T05:36:20.702Z,99862.91
2022-10-15T05:38:50.972Z,99867.16
2022-10-15T05:41:21.239Z,99844.47
2022-10-15T05:43:50.250Z,99849.69
2022-10-15T05:46:19.295Z,99842.56
2022-10-15T05:48:50.243Z,99849.47
2022-10-15T05:51:18.723Z,99837.19
2022-10-15T05:53:47.374Z,99844.19
2022-10-15T05:56:16.742Z,99845.06
2022-10-15T05:58:46.792Z,99851.22
2022-10-15T06:01:17.886Z,99849.38
2022-10-15T06:03:46.378Z,99845.72
2022-10-15T06:06:16.653Z,99847.47
2022-10-15T06:08:45.296Z,99830.72
2022-10-15T06:11:13.733Z,99850.81
2022-10-15T06:13:43.600Z,99844.59
2022-10-15T06:16:17.919Z,99849.44
2022-10-15T06:18:49.290Z,99849.56
2022-10-15T06:21:18.575Z,99853.66
2022-10-15T06:23:46.769Z,99844.09
2022-10-15T06:26:14.941Z,99852.84
2022-10-15T06:28:43.531Z,99851.00
2022-10-15T06:31:13.607Z,99852.75
2022-10-15T06:33:42.070Z,99854.59
2022-10-15T06:36:13.828Z,99862.44
2022-10-15T06:38:44.325Z,99859.88
2022-10-15T06:41:12.718Z,99863.47
2022-10-15T06:43:43.771Z,99865.03
2022-10-15T06:46:13.648Z,99856.28
2022-10-15T06:48:42.052Z,99842.34
2022-10-15T06:51:14.091Z,99869.34
2022-10-15T06:53:44.039Z,99861.50
2022-10-15T06:56:12.177Z,99859.88
2022-10-15T06:58:43.688Z,99874.03
2022-10-15T07:01:13.176Z,99882.56
2022-10-15T07:03:41.919Z,99879.75
2022-10-15T07:06:11.198Z,99880.72
2022-10-15T07:08:39.569Z,99884.47
2022-10-15T07:11:09.996Z,99893.22
2022-10-15T07:13:39.013Z,99888.56
2022-10-15T07:16:07.983Z,99889.38
2022-10-15T07:18:38.244Z,99890.25
2022-10-15T07:21:08.486Z,99888.59
2022-10-15T07:23:36.725Z,99892.91
2022-10-15T07:26:05.274Z,99887.63
2022-10-15T07:28:33.936Z,99894.56
2022-10-15T07:31:03.389Z,99904.09
2022-10-15T07:33:31.793Z,99892.81
2022-10-15T07:36:06.598Z,99910.44
2022-10-15T07:38:35.114Z,99903.31
2022-10-15T07:41:05.839Z,99910.22
2022-10-15T07:43:34.625Z,99909.41
2022-10-15T07:46:03.259Z,99910.03
2022-10-15T07:48:31.741Z,99923.34
2022-10-15T07:51:04.056Z,99919.81
2022-10-15T07:53:33.078Z,99927.75
2022-10-15T07:56:01.999Z,99924.09
2022-10-15T07:58:30.813Z,99911.78
2022-10-15T08:01:01.668Z,99925.81
2022-10-15T08:03:30.721Z,99933.63
2022-10-15T08:06:03.810Z,99923.91
2022-10-15T08:08:31.976Z,99935.16
2022-10-15T08:11:05.448Z,99938.75
2022-10-15T08:13:34.370Z,99939.41
2022-10-15T08:16:02.752Z,99926.91
2022-10-15T08:18:31.080Z,99940.75
2022-10-15T08:21:03.076Z,99935.25
2022-10-15T08:23:31.397Z,99937.81
2022-10-15T08:26:00.953Z,99941.25
2022-10-15T08:28:29.308Z,99942.47
2022-10-15T08:31:02.781Z,99948.56
2022-10-15T08:33:34.562Z,99947.56
2022-10-15T08:36:06.120Z,99953.38
2022-10-15T08:38:35.189Z,99956.91
2022-10-15T08:41:07.371Z,99956.72
2022-10-15T08:43:38.697Z,99956.31
2022-10-15T08:46:12.868Z,99961.53
2022-10-15T08:48:46.739Z,99959.69
2022-10-15T08:51:20.305Z,99966.81
2022-10-15T08:53:54.863Z,99970.28
2022-10-15T08:56:28.615Z,99975.34
2022-10-15T08:59:05.219Z,99985.09
2022-10-15T09:01:39.741Z,99990.34
2022-10-15T09:04:21.488Z,100000.03
2022-10-15T09:06:57.029Z,99993.16
2022-10-15T09:09:32.914Z,99985.03
2022-10-15T09:12:09.809Z,99994.19
2022-10-15T09:14:42.821Z,99991.16
2022-10-15T09:17:20.522Z,99996.75
2022-10-15T09:19:53.225Z,99981.16
2022-10-15T09:22:25.962Z,99992.09
2022-10-15T09:24:54.487Z,99994.00
2022-10-15T09:27:32.972Z,99992.97
2022-10-15T09:30:07.208Z,99996.41
2022-10-15T09:32:41.205Z,100007.13
2022-10-15T09:35:17.497Z,100023.03
2022-10-15T09:37:56.062Z,100036.69
2022-10-15T09:40:35.310Z,100052.97
2022-10-15T09:43:06.110Z,100059.19
2022-10-15T09:45:34.649Z,100046.44
2022-10-15T09:48:04.212Z,100035.03
2022-10-15T09:50:42.151Z,100036.69
2022-10-15T09:53:23.265Z,100047.50
2022-10-15T09:56:05.220Z,100039.69
2022-10-15T09:58:40.909Z,100041.53
2022-10-15T10:01:18.336Z,100049.72
2022-10-15T10:03:46.525Z,100049.94
2022-10-15T10:06:16.054Z,100056.06
2022-10-15T10:08:53.614Z,100065.34
2022-10-15T10:11:23.680Z,100077.91
2022-10-15T10:13:55.768Z,100092.31
2022-10-15T10:16:25.284Z,100095.78
2022-10-15T10:19:12.930Z,100113.94
2022-10-15T10:21:42.974Z,100111.38
2022-10-15T10:24:28.799Z,100116.03
2022-10-15T10:26:57.713Z,100112.81
2022-10-15T10:29:35.445Z,100117.44
2022-10-15T10:32:12.622Z,100123.75
2022-10-15T10:34:48.773Z,100123.13
2022-10-15T10:37:20.079Z,100120.31
2022-10-15T10:39:54.366Z,100123.69
2022-10-15T10:42:32.315Z,100119.09
2022-10-15T10:45:18.795Z,100115.31
2022-10-15T10:47:47.804Z,100126.00
2022-10-15T10:50:34.761Z,100119.28
2022-10-15T10:53:21.354Z,100129.00
2022-10-15T10:55:51.913Z,100128.03
2022-10-15T10:58:26.293Z,100131.53
2022-10-15T11:00:55.810Z,100138.16
2022-10-15T11:03:43.099Z,100147.13
2022-10-15T11:06:30.173Z,100149.69
2022-10-15T11:09:09.003Z,100148.66
2022-10-15T11:11:47.699Z,100138.16
2022-10-15T11:14:26.196Z,100145.81
2022-10-15T11:17:03.850Z,100149.78
2022-10-15T11:22:44.269Z,100155.66
2022-10-15T11:25:24.059Z,100160.28
2022-10-15T11:28:15.046Z,100144.47
2022-10-15T11:30:51.572Z,100165.34
2022-10-15T11:33:53.066Z,100163.88
2022-10-15T11:36:37.524Z,100163.00
2022-10-15T11:39:30.549Z,100166.38
2022-10-15T11:42:11.464Z,100164.53
2022-10-15T11:45:01.346Z,100169.66
2022-10-15T11:47:43.549Z,100179.47
2022-10-15T11:50:26.701Z,100172.25
2022-10-15T11:53:04.838Z,100171.19
2022-10-15T11:55:41.088Z,100178.34
2022-10-15T11:58:18.102Z,100182.91
2022-10-15T12:00:52.942Z,100170.66
2022-10-15T12:03:26.020Z,100182.66
2022-10-15T12:05:59.924Z,100180.84
2022-10-15T12:08:31.690Z,100183.22
2022-10-15T12:11:12.767Z,100170.06
2022-10-15T12:13:47.392Z,100174.84
2022-10-15T12:16:27.775Z,100175.72
2022-10-15T12:19:06.269Z,100175.06
2022-10-15T12:21:38.974Z,100171.75
2022-10-15T12:24:28.530Z,100177.94
2022-10-15T12:26:56.910Z,100180.13
2022-10-15T12:29:29.357Z,100173.13
2022-10-15T12:31:58.788Z,100177.00
2022-10-15T12:34:40.643Z,100181.03
2022-10-15T12:37:18.187Z,100181.25
2022-10-15T12:39:52.446Z,100188.53
2022-10-15T12:42:27.218Z,100186.53
2022-10-15T12:44:57.388Z,100184.72
2022-10-15T12:47:49.967Z,100192.31
2022-10-15T12:50:21.979Z,100191.84
2022-10-15T12:53:29.134Z,100182.66
2022-10-15T12:56:22.723Z,100179.28
2022-10-15T12:58:52.379Z,100177.34
2022-10-15T13:01:30.818Z,100184.38
2022-10-15T13:04:01.559Z,100201.91
2022-10-15T13:06:36.061Z,100202.22
2022-10-15T13:09:25.777Z,100202.44
2022-10-15T13:11:55.653Z,100212.03
2022-10-15T13:14:33.712Z,100209.47
2022-10-15T13:17:06.221Z,100211.22
2022-10-15T13:19:39.670Z,100198.88
2022-10-15T13:22:21.382Z,100197.16
2022-10-15T13:24:49.824Z,100194.56
2022-10-15T13:27:24.121Z,100183.31
2022-10-15T13:29:57.048Z,100192.09
2022-10-15T13:32:27.598Z,100181.34
2022-10-15T13:34:58.718Z,100172.72
2022-10-15T13:37:32.887Z,100162.31
2022-10-15T13:40:06.530Z,100172.81
2022-10-15T13:42:36.861Z,100160.59
2022-10-15T13:45:16.555Z,100151.94
2022-10-15T13:47:49.395Z,100153.28
2022-10-15T13:50:25.398Z,100157.13
2022-10-15T13:52:58.563Z,100137.25
2022-10-15T13:55:29.522Z,100144.97
2022-10-15T13:58:02.893Z,100139.59
2022-10-15T14:00:33.769Z,100137.09
2022-10-15T14:03:09.660Z,100129.22
2022-10-15T14:05:39.731Z,100124.09
2022-10-15T14:08:15.818Z,100129.22
2022-10-15T14:10:44.129Z,100122.88
2022-10-15T14:13:12.709Z,100112.50
2022-10-15T14:15:47.947Z,100112.53
2022-10-15T14:18:19.414Z,100102.81
2022-10-15T14:20:50.543Z,100103.69
2022-10-15T14:23:23.390Z,100103.53
2022-10-15T14:25:57.026Z,100099.53
2022-10-15T14:28:27.195Z,100095.75
2022-10-15T14:30:56.456Z,100097.41
2022-10-15T14:33:45.602Z,100099.13
2022-10-15T14:36:27.843Z,100090.19
2022-10-15T14:38:57.184Z,100093.63
2022-10-15T14:41:29.523Z,100099.25
2022-10-15T14:44:17.945Z,100093.81
2022-10-15T14:46:48.992Z,100099.03
2022-10-15T14:49:27.765Z,100096.44
2022-10-15T14:52:02.303Z,100081.28
2022-10-15T14:54:36.459Z,100085.63
2022-10-15T14:57:05.424Z,100085.47
2022-10-15T14:59:38.619Z,100090.06
2022-10-15T15:02:15.714Z,100089.50
2022-10-15T15:05:05.265Z,100090.63
2022-10-15T15:07:35.194Z,100079.22
2022-10-15T15:10:03.356Z,100081.78
2022-10-15T15:12:33.137Z,100079.31
2022-10-15T15:15:02.269Z,100076.81
2022-10-15T15:17:31.609Z,100075.06
2022-10-15T15:19:59.875Z,100082.09
2022-10-15T15:22:32.085Z,100084.91
2022-10-15T15:25:04.673Z,100090.25
2022-10-15T15:27:37.291Z,100085.31
2022-10-15T15:30:08.363Z,100077.31
2022-10-15T15:32:36.571Z,100074.56
2022-10-15T15:35:17.758Z,100075.69
2022-10-15T15:37:45.988Z,100082.91
2022-10-15T15:40:15.864Z,100068.84
2022-10-15T15:42:44.560Z,100079.31
2022-10-15T15:45:19.768Z,100082.41
2022-10-15T15:47:47.926Z,100076.25
2022-10-15T15:50:16.772Z,100067.56
2022-10-15T15:52:45.069Z,100058.91
2022-10-15T15:55:15.960Z,100068.47
2022-10-15T15:57:45.405Z,100051.84
2022-10-15T16:00:14.961Z,100055.25
2022-10-15T16:02:43.240Z,100055.25
2022-10-15T16:05:15.963Z,100042.28
2022-10-15T16:07:44.482Z,100043.13
2022-10-15T16:10:13.089Z,100041.41
2022-10-15T16:12:44.233Z,100024.00
2022-10-15T16:15:14.709Z,100025.72
2022-10-15T16:17:43.713Z,100022.25
2022-10-15T16:20:13.623Z,100009.16
2022-10-15T16:22:42.753Z,100013.41
2022-10-15T16:25:11.540Z,99997.72
2022-10-15T16:27:39.852Z,99999.34
2022-10-15T16:30:09.966Z,100004.63
2022-10-15T16:32:38.259Z,99999.25
2022-10-15T16:35:07.695Z,99998.38
2022-10-15T16:37:35.776Z,99994.81
2022-10-15T16:40:04.330Z,99982.63
2022-10-15T16:42:32.569Z,99977.19
2022-10-15T16:45:00.575Z,99977.97
2022-10-15T16:47:30.161Z,99973.66
2022-10-15T16:49:58.382Z,99969.03
2022-10-15T16:52:27.352Z,99960.19
2022-10-15T16:54:55.824Z,99967.22
2022-10-15T16:57:24.459Z,99967.09
2022-10-15T16:59:52.682Z,99969.81
2022-10-15T17:02:20.900Z,99965.38
2022-10-15T17:04:50.721Z,99975.03
2022-10-15T17:07:19.148Z,99982.00
2022-10-15T17:12:18.041Z,99965.25
2022-10-15T17:14:50.815Z,99959.97
2022-10-15T17:17:19.223Z,99958.25
2022-10-15T17:19:47.406Z,99953.06
2022-10-15T17:22:17.022Z,99955.53
2022-10-15T17:24:45.382Z,99953.63
2022-10-15T17:27:13.640Z,99939.81
2022-10-15T17:29:41.761Z,99944.00
2022-10-15T17:32:09.977Z,99944.00
2022-10-15T17:34:38.435Z,99956.22
2022-10-15T17:37:06.585Z,99951.03
2022-10-15T17:39:36.320Z,99934.94
2022-10-15T17:42:04.638Z,99934.84
2022-10-15T17:44:32.820Z,99947.25
2022-10-15T17:47:01.052Z,99946.22
2022-10-15T17:49:29.283Z,99945.31
2022-10-15T17:51:57.405Z,99950.63
2022-10-15T17:54:25.820Z,99936.47
2022-10-15T17:56:55.235Z,99948.88
2022-10-15T17:59:23.545Z,99946.09
2022-10-15T18:02:00.183Z,99946.94
2022-10-15T18:04:29.582Z,99948.75
2022-10-15T18:06:58.108Z,99940.91
2022-10-15T18:09:26.577Z,99944.28
2022-10-15T18:11:56.669Z,99946.75
2022-10-15T18:14:24.859Z,99941.56
2022-10-15T18:16:53.209Z,99927.66
2022-10-15T18:19:21.421Z,99933.84
2022-10-15T18:21:50.098Z,99941.47
2022-10-15T18:24:21.719Z,99941.56
2022-10-15T18:26:50.777Z,99927.50
2022-10-15T18:29:20.580Z,99923.09
2022-10-15T18:31:52.222Z,99918.66
2022-10-15T18:34:23.522Z,99902.78
2022-10-15T18:36:51.608Z,99903.50
2022-10-15T18:39:19.674Z,99906.00
2022-10-15T18:41:47.938Z,99899.19
2022-10-15T18:44:17.976Z,99897.47
2022-10-15T18:46:47.524Z,99890.34
2022-10-15T18:49:17.317Z,99892.81
2022-10-15T18:51:46.686Z,99906.13
2022-10-15T18:54:15.281Z,99896.53
2022-10-15T18:56:43.417Z,99893.69
2022-10-15T18:59:11.582Z,99879.75
2022-10-15T19:01:43.260Z,99882.34
2022-10-15T19:04:14.612Z,99883.31
2022-10-15T19:06:44.512Z,99881.38
2022-10-15T19:09:15.174Z,99869.69
2022-10-15T19:11:45.353Z,99875.88
2022-10-15T19:14:15.453Z,99879.66
2022-10-15T19:16:44.347Z,99872.53
2022-10-15T19:19:16.357Z,99881.25
2022-10-15T19:21:44.542Z,99865.28
2022-10-15T19:24:13.015Z,99863.53
2022-10-15T19:26:41.540Z,99855.66
2022-10-15T19:29:10.592Z,99842.34
2022-10-15T19:31:41.157Z,99855.41
2022-10-15T19:34:09.623Z,99849.38
2022-10-15T19:36:41.480Z,99849.50
2022-10-15T19:39:12.833Z,99849.59
2022-10-15T19:41:42.434Z,99857.34
2022-10-15T19:44:12.980Z,99862.41
2022-10-15T19:46:42.069Z,99859.97
2022-10-15T19:49:13.278Z,99870.56
2022-10-15T19:51:42.890Z,99854.56
2022-10-15T19:54:11.428Z,99862.28
2022-10-15T19:56:39.685Z,99854.69
2022-10-15T19:59:09.185Z,99853.72
2022-10-15T20:01:37.632Z,99856.34
2022-10-15T20:04:07.064Z,99859.84
2022-10-15T20:06:36.346Z,99845.69
2022-10-15T20:09:06.728Z,99847.53
2022-10-15T20:11:34.896Z,99850.03
2022-10-15T20:14:03.556Z,99842.00
2022-10-15T20:16:33.471Z,99848.00
2022-10-15T20:19:02.922Z,99836.59
2022-10-15T20:21:31.048Z,99833.16
2022-10-15T20:23:59.648Z,99824.41
2022-10-15T20:26:29.094Z,99838.34
2022-10-15T20:28:57.636Z,99838.09
2022-10-15T20:31:29.127Z,99833.16
2022-10-15T20:33:57.171Z,99838.25
2022-10-15T20:36:27.381Z,99830.50
2022-10-15T20:38:57.590Z,99820.38
2022-10-15T20:41:25.884Z,99833.16
2022-10-15T20:43:56.713Z,99831.41
2022-10-15T20:46:28.678Z,99836.72
2022-10-15T20:48:59.596Z,99824.31
2022-10-15T20:51:28.985Z,99827.97
2022-10-15T20:53:58.916Z,99839.53
2022-10-15T20:56:27.257Z,99820.13
2022-10-15T20:58:56.634Z,99826.97
2022-10-15T21:01:25.277Z,99817.28
2022-10-15T21:03:53.657Z,99834.06
2022-10-15T21:06:21.732Z,99825.38
2022-10-15T21:08:50.390Z,99833.94
2022-10-15T21:11:18.843Z,99824.25
2022-10-15T21:13:47.097Z,99834.91
2022-10-15T21:16:17.033Z,99827.97
2022-10-15T21:18:45.206Z,99829.72
2022-10-15T21:21:15.009Z,99813.03
2022-10-15T21:23:43.861Z,99842.34
2022-10-15T21:26:13.644Z,99842.34
2022-10-15T21:28:42.128Z,99852.75
2022-10-15T21:31:12.138Z,99845.81
2022-10-15T21:33:41.997Z,99851.06
2022-10-15T21:36:14.975Z,99837.28
2022-10-15T21:38:43.722Z,99855.41
2022-10-15T21:41:11.783Z,99851.09
2022-10-15T21:43:40.175Z,99852.84
2022-10-15T21:46:10.837Z,99851.00
2022-10-15T21:48:39.847Z,99856.50
2022-10-15T21:51:13.212Z,99849.50
2022-10-15T21:53:41.992Z,99845.81
2022-10-15T21:56:10.693Z,99860.78
2022-10-15T21:58:41.433Z,99834.34
2022-10-15T22:01:13.566Z,99838.03
2022-10-15T22:03:44.578Z,99847.75
2022-10-15T22:06:14.812Z,99854.03
2022-10-15T22:08:43.474Z,99856.63
2022-10-15T22:11:14.327Z,99868.09
2022-10-15T22:13:43.205Z,99870.78
2022-10-15T22:16:11.783Z,99869.00
2022-10-15T22:18:41.697Z,99891.84
2022-10-15T22:21:15.451Z,99900.72
2022-10-15T22:23:46.564Z,99915.06
2022-10-15T22:26:15.237Z,99892.38
2022-10-15T22:28:44.950Z,99886.00
2022-10-15T22:31:15.027Z,99894.84
2022-10-15T22:33:43.666Z,99908.78
2022-10-15T22:36:15.933Z,99899.81
2022-10-15T22:38:47.455Z,99905.22
2022-10-15T22:41:16.794Z,99882.31
2022-10-15T22:43:45.278Z,99895.59
2022-10-15T22:46:13.861Z,99890.16
2022-10-15T22:48:43.541Z,99891.16
2022-10-15T22:51:13.706Z,99903.59
2022-10-15T22:53:42.015Z,99891.28
2022-10-15T22:56:14.350Z,99891.28
2022-10-15T22:58:43.033Z,99895.81
2022-10-15T23:01:13.750Z,99900.22
2022-10-15T23:03:43.283Z,99893.22
2022-10-15T23:06:12.450Z,99899.25
2022-10-15T23:08:40.830Z,99913.66
2022-10-15T23:11:12.617Z,99914.56
2022-10-15T23:13:41.781Z,99914.53
2022-10-15T23:16:13.940Z,99912.03
2022-10-15T23:18:43.789Z,99918.19
2022-10-15T23:21:14.851Z,99916.34
2022-10-15T23:23:44.520Z,99917.19
2022-10-15T23:26:15.684Z,99923.31
2022-10-15T23:28:44.843Z,99925.06
2022-10-15T23:31:17.349Z,99921.59
2022-10-15T23:33:45.586Z,99928.53
2022-10-15T23:36:13.828Z,99917.84
2022-10-15T23:38:42.168Z,99917.84
2022-10-15T23:41:11.221Z,99914.31
2022-10-15T23:43:40.907Z,99910.06
2022-10-15T23:46:09.842Z,99916.50
2022-10-15T23:48:38.354Z,99913.94
2022-10-15T23:51:13.694Z,99911.56
2022-10-15T23:56:10.382Z,99900.25
2022-10-15T23:58:38.658Z,99898.03
